createdAt,value
2023-03-20T00:00:52.177Z,94.52
2023-03-20T00:03:20.604Z,94.87
2023-03-20T00:05:48.261Z,95.13
2023-03-20T00:08:15.929Z,95.26
2023-03-20T00:10:46.069Z,95.49
2023-03-20T00:13:17.844Z,95.83
2023-03-20T00:15:45.675Z,96.18
2023-03-20T00:18:18.316Z,96.48
2023-03-20T00:20:46.722Z,96.45
2023-03-20T00:23:15.014Z,96.58
2023-03-20T00:25:44.616Z,96.78
2023-03-20T00:28:30.979Z,96.79
2023-03-20T00:30:58.617Z,97.18
2023-03-20T00:33:28.263Z,97.24
2023-03-20T00:35:55.978Z,97.57
2023-03-20T00:38:23.702Z,97.79
2023-03-20T00:40:52.521Z,98.00
2023-03-20T00:43:20.197Z,98.38
2023-03-20T00:45:47.989Z,98.54
2023-03-20T00:48:16.813Z,98.96
2023-03-20T00:50:46.086Z,99.12
2023-03-20T00:53:13.817Z,99.36
2023-03-20T00:55:41.707Z,99.51
2023-03-20T00:58:13.066Z,99.49
2023-03-20T01:00:42.503Z,99.42
2023-03-20T01:03:16.952Z,99.02
2023-03-20T01:05:46.804Z,99.37
2023-03-20T01:08:16.727Z,99.50
2023-03-20T01:10:46.357Z,100.00
2023-03-20T01:13:22.538Z,100.00
2023-03-20T01:15:51.476Z,100.00
2023-03-20T01:18:20.709Z,100.00
2023-03-20T01:20:50.422Z,100.00
2023-03-20T01:23:18.115Z,100.00
2023-03-20T01:25:46.198Z,100.00
2023-03-20T01:28:18.217Z,100.00
2023-03-20T01:30:46.724Z,100.00
2023-03-20T01:33:17.025Z,100.00
2023-03-20T01:35:45.297Z,100.00
2023-03-20T01:38:19.591Z,100.00
2023-03-20T01:40:55.414Z,100.00
2023-03-20T01:43:24.660Z,100.00
2023-03-20T01:46:00.072Z,100.00
2023-03-20T01:48:38.581Z,100.00
2023-03-20T01:51:06.663Z,100.00
2023-03-20T01:53:35.816Z,100.00
2023-03-20T01:56:03.560Z,100.00
2023-03-20T01:58:37.288Z,100.00
2023-03-20T02:01:07.351Z,100.00
2023-03-20T02:03:35.360Z,100.00
2023-03-20T02:06:02.993Z,100.00
2023-03-20T02:08:32.214Z,100.00
2023-03-20T02:11:02.372Z,100.00
2023-03-20T02:13:31.811Z,100.00
2023-03-20T02:16:04.137Z,100.00
2023-03-20T02:18:33.004Z,100.00
2023-03-20T02:21:47.836Z,100.00
2023-03-20T02:24:37.874Z,100.00
2023-03-20T02:27:14.691Z,100.00
2023-03-20T02:30:24.661Z,100.00
2023-03-20T02:33:34.395Z,100.00
2023-03-20T02:36:34.716Z,100.00
2023-03-20T02:39:18.740Z,100.00
2023-03-20T02:41:52.869Z,100.00
2023-03-20T02:44:25.778Z,100.00
2023-03-20T02:47:01.260Z,100.00
2023-03-20T02:49:45.011Z,100.00
2023-03-20T02:52:19.793Z,100.00
2023-03-20T02:54:58.234Z,100.00
2023-03-20T02:57:39.544Z,100.00
2023-03-20T03:00:13.318Z,100.00
2023-03-20T03:02:46.313Z,100.00
2023-03-20T03:05:17.247Z,100.00
2023-03-20T03:07:48.012Z,100.00
2023-03-20T03:10:22.575Z,100.00
2023-03-20T03:12:52.921Z,100.00
2023-03-20T03:15:26.257Z,100.00
2023-03-20T03:17:54.524Z,100.00
2023-03-20T03:20:26.059Z,100.00
2023-03-20T03:22:53.748Z,100.00
2023-03-20T03:25:27.315Z,100.00
2023-03-20T03:28:01.554Z,100.00
2023-03-20T03:30:32.655Z,100.00
2023-03-20T03:33:15.329Z,100.00
2023-03-20T03:35:43.177Z,100.00
2023-03-20T03:38:25.914Z,100.00
2023-03-20T03:41:07.972Z,100.00
2023-03-20T03:43:42.706Z,100.00
2023-03-20T03:46:15.421Z,100.00
2023-03-20T03:48:48.332Z,100.00
2023-03-20T03:51:18.862Z,100.00
2023-03-20T03:53:53.000Z,100.00
2023-03-20T03:56:27.109Z,100.00
2023-03-20T03:58:58.077Z,100.00
2023-03-20T04:01:29.069Z,100.00
2023-03-20T04:04:01.054Z,100.00
2023-03-20T04:06:29.431Z,100.00
2023-03-20T04:08:57.147Z,100.00
2023-03-20T04:11:28.408Z,100.00
2023-03-20T04:13:56.569Z,100.00
2023-03-20T04:16:25.768Z,100.00
2023-03-20T04:18:53.592Z,100.00
2023-03-20T04:21:21.278Z,100.00
2023-03-20T04:23:48.950Z,100.00
2023-03-20T04:26:16.739Z,100.00
2023-03-20T04:28:45.832Z,100.00
2023-03-20T04:31:14.132Z,100.00
2023-03-20T04:33:41.899Z,100.00
2023-03-20T04:36:10.484Z,100.00
2023-03-20T04:38:38.277Z,100.00
2023-03-20T04:41:06.764Z,100.00
2023-03-20T04:43:34.473Z,100.00
2023-03-20T04:46:03.696Z,100.00
2023-03-20T04:48:31.350Z,100.00
2023-03-20T04:50:58.984Z,100.00
2023-03-20T04:53:27.263Z,100.00
2023-03-20T04:55:55.118Z,100.00
2023-03-20T04:58:23.593Z,100.00
2023-03-20T05:00:51.612Z,100.00
2023-03-20T05:03:23.402Z,100.00
2023-03-20T05:05:51.767Z,100.00
2023-03-20T05:08:19.455Z,100.00
2023-03-20T05:10:47.073Z,100.00
2023-03-20T05:13:14.756Z,100.00
2023-03-20T05:15:42.374Z,100.00
2023-03-20T05:18:10.605Z,100.00
2023-03-20T05:20:39.575Z,100.00
2023-03-20T05:23:07.533Z,100.00
2023-03-20T05:25:35.520Z,100.00
2023-03-20T05:28:03.326Z,100.00
2023-03-20T05:30:31.016Z,100.00
2023-03-20T05:32:58.787Z,100.00
2023-03-20T05:35:26.513Z,100.00
2023-03-20T05:37:55.527Z,100.00
2023-03-20T05:40:25.383Z,100.00
2023-03-20T05:42:53.577Z,100.00
2023-03-20T05:45:21.465Z,100.00
2023-03-20T05:47:49.079Z,100.00
2023-03-20T05:50:17.210Z,100.00
2023-03-20T05:52:47.954Z,100.00
2023-03-20T05:55:17.582Z,100.00
2023-03-20T05:57:45.303Z,100.00
2023-03-20T06:00:13.799Z,100.00
2023-03-20T06:02:41.493Z,100.00
2023-03-20T06:05:09.955Z,100.00
2023-03-20T06:07:37.797Z,100.00
2023-03-20T06:10:06.298Z,100.00
2023-03-20T06:12:35.478Z,100.00
2023-03-20T06:15:03.251Z,100.00
2023-03-20T06:17:31.069Z,100.00
2023-03-20T06:19:58.729Z,100.00
2023-03-20T06:22:26.341Z,100.00
2023-03-20T06:24:56.883Z,100.00
2023-03-20T06:27:24.795Z,100.00
2023-03-20T06:29:53.827Z,100.00
2023-03-20T06:32:21.535Z,100.00
2023-03-20T06:34:49.785Z,100.00
2023-03-20T06:37:17.584Z,100.00
2023-03-20T06:39:45.223Z,100.00
2023-03-20T06:42:16.090Z,100.00
2023-03-20T06:44:44.276Z,100.00
2023-03-20T06:47:13.274Z,100.00
2023-03-20T06:49:41.889Z,100.00
2023-03-20T06:52:16.338Z,100.00
2023-03-20T06:54:44.247Z,100.00
2023-03-20T06:57:15.109Z,100.00
2023-03-20T06:59:42.976Z,100.00
2023-03-20T07:02:11.500Z,100.00
2023-03-20T07:04:41.047Z,100.00
2023-03-20T07:07:08.908Z,100.00
2023-03-20T07:09:36.958Z,100.00
2023-03-20T07:12:05.713Z,100.00
2023-03-20T07:14:33.545Z,100.00
2023-03-20T07:17:01.317Z,100.00
2023-03-20T07:19:29.045Z,100.00
2023-03-20T07:22:02.860Z,100.00
2023-03-20T07:24:30.590Z,100.00
2023-03-20T07:26:58.274Z,100.00
2023-03-20T07:29:25.896Z,100.00
2023-03-20T07:31:53.608Z,100.00
2023-03-20T07:34:21.267Z,100.00
2023-03-20T07:36:48.939Z,100.00
2023-03-20T07:39:18.037Z,100.00
2023-03-20T07:41:45.707Z,100.00
2023-03-20T07:44:14.305Z,100.00
2023-03-20T07:46:43.019Z,100.00
2023-03-20T07:49:11.412Z,100.00
2023-03-20T07:51:39.101Z,100.00
2023-03-20T07:54:07.175Z,100.00
2023-03-20T07:56:36.230Z,100.00
2023-03-20T07:59:04.157Z,100.00
2023-03-20T08:01:31.795Z,100.00
2023-03-20T08:03:59.546Z,100.00
2023-03-20T08:06:27.317Z,100.00
2023-03-20T08:08:55.333Z,100.00
2023-03-20T08:11:23.250Z,100.00
2023-03-20T08:13:52.332Z,100.00
2023-03-20T08:16:20.920Z,100.00
2023-03-20T08:18:50.452Z,100.00
2023-03-20T08:21:18.058Z,100.00
2023-03-20T08:23:46.017Z,100.00
2023-03-20T08:26:13.816Z,100.00
2023-03-20T08:28:47.443Z,100.00
2023-03-20T08:31:17.785Z,100.00
2023-03-20T08:33:45.881Z,100.00
2023-03-20T08:36:15.381Z,100.00
2023-03-20T08:38:43.546Z,100.00
2023-03-20T08:41:11.805Z,100.00
2023-03-20T08:43:39.851Z,100.00
2023-03-20T08:46:08.586Z,100.00
2023-03-20T08:48:37.715Z,100.00
2023-03-20T08:51:06.290Z,100.00
2023-03-20T08:53:34.021Z,100.00
2023-03-20T08:56:01.694Z,100.00
2023-03-20T08:58:30.561Z,100.00
2023-03-20T09:01:02.929Z,100.00
2023-03-20T09:03:31.619Z,100.00
2023-03-20T09:06:00.935Z,99.19
2023-03-20T09:08:28.623Z,95.62
2023-03-20T09:10:56.262Z,94.46
2023-03-20T09:13:27.550Z,92.53
2023-03-20T09:15:56.746Z,93.15
2023-03-20T09:18:25.651Z,90.27
2023-03-20T09:20:53.548Z,89.59
2023-03-20T09:23:22.563Z,90.76
2023-03-20T09:25:50.234Z,89.16
2023-03-20T09:28:17.885Z,88.69
2023-03-20T09:30:45.819Z,88.78
2023-03-20T09:33:14.802Z,88.73
2023-03-20T09:35:43.778Z,88.05
2023-03-20T09:38:12.191Z,87.79
2023-03-20T09:40:52.265Z,88.15
2023-03-20T09:43:30.215Z,86.16
2023-03-20T09:46:06.880Z,85.59
2023-03-20T09:48:41.723Z,84.53
2023-03-20T09:51:20.875Z,82.80
2023-03-20T09:53:54.037Z,83.30
2023-03-20T09:56:27.117Z,85.68
2023-03-20T09:58:56.856Z,85.84
2023-03-20T10:01:27.595Z,86.53
2023-03-20T10:04:00.489Z,87.12
2023-03-20T10:06:28.534Z,83.57
2023-03-20T10:08:56.277Z,81.41
2023-03-20T10:11:41.584Z,81.84
2023-03-20T10:14:21.849Z,82.80
2023-03-20T10:17:11.191Z,82.34
2023-03-20T10:19:44.762Z,81.39
2023-03-20T10:22:25.255Z,82.26
2023-03-20T10:24:55.168Z,83.59
2023-03-20T10:27:34.067Z,83.00
2023-03-20T10:30:19.516Z,83.98
2023-03-20T10:32:53.555Z,82.85
2023-03-20T10:35:29.714Z,83.33
2023-03-20T10:38:12.586Z,82.75
2023-03-20T10:40:42.539Z,81.25
2023-03-20T10:43:17.936Z,81.20
2023-03-20T10:45:47.740Z,80.87
2023-03-20T10:48:21.706Z,80.44
2023-03-20T10:50:54.652Z,80.43
2023-03-20T10:53:29.715Z,81.42
2023-03-20T10:56:01.080Z,79.93
2023-03-20T10:58:35.166Z,81.01
2023-03-20T11:01:03.494Z,81.58
2023-03-20T11:03:32.908Z,80.91
2023-03-20T11:06:09.642Z,81.76
2023-03-20T11:08:41.383Z,80.42
2023-03-20T11:11:10.201Z,80.67
2023-03-20T11:13:42.917Z,81.30
2023-03-20T11:16:19.736Z,80.96
2023-03-20T11:18:49.205Z,78.50
2023-03-20T11:21:21.317Z,79.19
2023-03-20T11:23:50.302Z,79.02
2023-03-20T11:26:19.834Z,79.00
2023-03-20T11:28:56.989Z,77.77
2023-03-20T11:31:29.869Z,78.38
2023-03-20T11:34:11.704Z,75.71
2023-03-20T11:36:41.207Z,77.61
2023-03-20T11:39:14.926Z,75.78
2023-03-20T11:41:47.556Z,76.57
2023-03-20T11:44:28.489Z,76.58
2023-03-20T11:46:57.924Z,76.11
2023-03-20T11:49:27.608Z,76.50
2023-03-20T11:52:00.040Z,76.09
2023-03-20T11:54:28.260Z,76.20
2023-03-20T11:56:57.997Z,77.72
2023-03-20T11:59:32.861Z,78.50
2023-03-20T12:02:03.206Z,76.08
2023-03-20T12:04:33.839Z,74.82
2023-03-20T12:07:04.814Z,74.66
2023-03-20T12:09:39.770Z,74.46
2023-03-20T12:12:14.892Z,74.77
2023-03-20T12:14:51.432Z,77.08
2023-03-20T12:17:31.500Z,76.47
2023-03-20T12:20:05.399Z,76.68
2023-03-20T12:22:38.231Z,75.83
2023-03-20T12:25:16.596Z,77.30
2023-03-20T12:27:48.726Z,76.41
2023-03-20T12:30:23.936Z,74.00
2023-03-20T12:33:00.268Z,73.74
2023-03-20T12:35:29.699Z,73.90
2023-03-20T12:37:58.132Z,73.01
2023-03-20T12:40:33.112Z,72.84
2023-03-20T12:43:06.577Z,72.64
2023-03-20T12:45:44.178Z,74.02
2023-03-20T12:48:38.532Z,74.30
2023-03-20T12:51:13.785Z,74.06
2023-03-20T12:53:52.035Z,74.33
2023-03-20T12:56:48.979Z,74.28
2023-03-20T12:59:24.350Z,73.21
2023-03-20T13:01:58.264Z,73.54
2023-03-20T13:04:44.730Z,73.97
2023-03-20T13:07:19.669Z,74.79
2023-03-20T13:10:08.743Z,72.69
2023-03-20T13:12:44.037Z,72.63
2023-03-20T13:15:23.623Z,73.86
2023-03-20T13:18:02.023Z,74.11
2023-03-20T13:20:32.201Z,74.19
2023-03-20T13:23:16.152Z,73.53
2023-03-20T13:26:16.026Z,74.43
2023-03-20T13:28:54.972Z,73.74
2023-03-20T13:31:34.809Z,73.20
2023-03-20T13:34:15.527Z,73.70
2023-03-20T13:36:48.415Z,74.37
2023-03-20T13:39:22.222Z,75.44
2023-03-20T13:41:51.806Z,74.70
2023-03-20T13:44:21.065Z,75.85
2023-03-20T13:46:51.600Z,76.71
2023-03-20T13:49:28.232Z,76.04
2023-03-20T13:52:04.088Z,76.48
2023-03-20T13:54:58.967Z,75.94
2023-03-20T13:57:46.179Z,75.11
2023-03-20T14:00:24.998Z,75.20
2023-03-20T14:03:08.410Z,75.26
2023-03-20T14:05:44.598Z,75.98
2023-03-20T14:08:24.433Z,76.23
2023-03-20T14:11:06.127Z,75.74
2023-03-20T14:13:35.626Z,75.25
2023-03-20T14:16:05.652Z,76.76
2023-03-20T14:18:33.407Z,75.85
2023-03-20T14:21:04.381Z,75.55
2023-03-20T14:23:38.064Z,76.24
2023-03-20T14:26:10.300Z,76.80
2023-03-20T14:28:55.544Z,77.33
2023-03-20T14:31:26.786Z,77.61
2023-03-20T14:34:00.440Z,78.15
2023-03-20T14:36:41.881Z,77.70
2023-03-20T14:39:21.780Z,78.26
2023-03-20T14:42:03.944Z,77.42
2023-03-20T14:44:51.932Z,77.02
2023-03-20T14:47:27.992Z,78.29
2023-03-20T14:50:03.349Z,78.31
2023-03-20T14:52:43.969Z,77.90
2023-03-20T14:55:33.522Z,78.02
2023-03-20T14:58:36.087Z,77.97
2023-03-20T15:01:05.893Z,78.10
2023-03-20T15:03:34.375Z,77.90
2023-03-20T15:06:06.388Z,78.83
2023-03-20T15:08:38.495Z,79.29
2023-03-20T15:11:09.973Z,80.52
2023-03-20T15:13:39.122Z,80.35
2023-03-20T15:16:10.150Z,80.85
2023-03-20T15:18:39.489Z,79.97
2023-03-20T15:21:14.134Z,79.60
2023-03-20T15:23:47.528Z,80.75
2023-03-20T15:26:17.049Z,80.66
2023-03-20T15:28:46.946Z,80.75
2023-03-20T15:31:23.001Z,81.42
2023-03-20T15:33:51.151Z,81.24
2023-03-20T15:36:21.352Z,81.82
2023-03-20T15:38:50.690Z,82.05
2023-03-20T15:41:30.449Z,82.24
2023-03-20T15:44:05.429Z,81.77
2023-03-20T15:46:33.161Z,80.80
2023-03-20T15:49:01.220Z,81.66
2023-03-20T15:51:29.350Z,81.04
2023-03-20T15:53:58.556Z,81.51
2023-03-20T15:56:28.055Z,81.86
2023-03-20T15:58:57.555Z,82.35
2023-03-20T16:01:33.753Z,82.53
2023-03-20T16:04:01.562Z,82.59
2023-03-20T16:06:29.353Z,82.49
2023-03-20T16:09:00.212Z,82.50
2023-03-20T16:11:37.454Z,82.35
2023-03-20T16:14:06.220Z,82.52
2023-03-20T16:16:37.262Z,81.35
2023-03-20T16:19:08.613Z,81.67
2023-03-20T16:21:39.149Z,81.62
2023-03-20T16:24:11.305Z,78.63
2023-03-20T16:26:43.506Z,78.82
2023-03-20T16:29:14.522Z,79.66
2023-03-20T16:31:46.523Z,77.87
2023-03-20T16:34:20.102Z,78.03
2023-03-20T16:36:54.378Z,77.43
2023-03-20T16:39:26.994Z,77.14
2023-03-20T16:42:14.195Z,75.28
2023-03-20T16:44:43.130Z,75.70
2023-03-20T16:47:20.297Z,76.13
2023-03-20T16:50:27.093Z,76.78
2023-03-20T16:52:59.100Z,77.23
2023-03-20T16:55:31.796Z,77.10
2023-03-20T16:58:04.680Z,76.51
2023-03-20T17:00:34.857Z,77.04
2023-03-20T17:03:13.544Z,77.13
2023-03-20T17:05:54.970Z,77.48
2023-03-20T17:08:37.786Z,77.27
2023-03-20T17:11:13.639Z,77.77
2023-03-20T17:13:42.268Z,77.99
2023-03-20T17:16:14.404Z,78.36
2023-03-20T17:18:42.149Z,78.92
2023-03-20T17:21:11.373Z,79.46
2023-03-20T17:23:39.180Z,79.00
2023-03-20T17:26:12.291Z,79.02
2023-03-20T17:28:40.258Z,79.09
2023-03-20T17:31:10.385Z,79.39
2023-03-20T17:33:38.026Z,79.81
2023-03-20T17:36:11.064Z,80.55
2023-03-20T17:38:38.747Z,80.47
2023-03-20T17:41:11.878Z,80.39
2023-03-20T17:43:39.505Z,80.94
2023-03-20T17:46:07.727Z,81.40
2023-03-20T17:48:35.635Z,81.66
2023-03-20T17:51:03.257Z,81.63
2023-03-20T17:53:31.365Z,82.17
2023-03-20T17:55:58.985Z,82.43
2023-03-20T17:58:28.386Z,81.90
2023-03-20T18:00:56.683Z,81.19
2023-03-20T18:03:24.489Z,81.06
2023-03-20T18:05:52.736Z,80.97
2023-03-20T18:08:22.173Z,80.23
2023-03-20T18:10:51.801Z,80.70
2023-03-20T18:13:21.020Z,80.75
2023-03-20T18:15:51.501Z,80.84
2023-03-20T18:18:22.453Z,81.52
2023-03-20T18:20:52.209Z,81.32
2023-03-20T18:23:19.885Z,80.55
2023-03-20T18:25:47.550Z,80.26
2023-03-20T18:28:20.852Z,79.11
2023-03-20T18:30:50.637Z,78.39
2023-03-20T18:33:19.326Z,78.28
2023-03-20T18:35:47.402Z,78.49
2023-03-20T18:38:14.999Z,78.83
2023-03-20T18:40:47.023Z,79.09
2023-03-20T18:43:14.636Z,79.28
2023-03-20T18:45:42.326Z,79.85
2023-03-20T18:48:13.306Z,80.52
2023-03-20T18:50:43.018Z,80.49
2023-03-20T18:53:13.352Z,80.62
2023-03-20T18:55:41.118Z,80.63
2023-03-20T18:58:20.261Z,80.40
2023-03-20T19:00:48.150Z,79.20
2023-03-20T19:03:17.772Z,79.03
2023-03-20T19:05:45.447Z,79.19
2023-03-20T19:08:15.873Z,79.14
2023-03-20T19:10:44.709Z,79.11
2023-03-20T19:13:15.516Z,79.37
2023-03-20T19:15:44.481Z,80.11
2023-03-20T19:18:17.094Z,80.02
2023-03-20T19:20:48.069Z,80.07
2023-03-20T19:23:17.226Z,80.45
2023-03-20T19:25:46.872Z,81.02
2023-03-20T19:28:34.600Z,80.68
2023-03-20T19:31:06.283Z,81.42
2023-03-20T19:33:34.223Z,81.20
2023-03-20T19:36:04.610Z,81.53
2023-03-20T19:38:32.757Z,82.03
2023-03-20T19:41:01.997Z,82.30
2023-03-20T19:43:29.741Z,82.40
2023-03-20T19:45:59.245Z,82.56
2023-03-20T19:48:43.212Z,82.90
2023-03-20T19:51:17.866Z,82.98
2023-03-20T19:53:45.986Z,83.26
2023-03-20T19:56:14.611Z,83.43
2023-03-20T19:58:43.368Z,83.28
2023-03-20T20:01:17.452Z,83.50
2023-03-20T20:03:46.057Z,83.24
2023-03-20T20:06:14.699Z,83.32
2023-03-20T20:08:48.866Z,83.38
2023-03-20T20:11:17.904Z,83.29
2023-03-20T20:14:07.259Z,83.69
2023-03-20T20:16:34.696Z,83.47
2023-03-20T20:19:02.548Z,83.03
2023-03-20T20:24:19.443Z,83.17
2023-03-20T20:26:54.232Z,82.72
2023-03-20T20:29:24.295Z,82.70
2023-03-20T20:31:52.097Z,82.51
2023-03-20T20:39:57.557Z,83.06
2023-03-20T20:42:25.321Z,83.11
2023-03-20T20:44:53.006Z,82.88
2023-03-20T20:47:21.224Z,82.67
2023-03-20T20:49:49.007Z,83.14
2023-03-20T20:52:17.479Z,82.42
2023-03-20T20:54:45.143Z,81.80
2023-03-20T20:57:14.304Z,81.99
2023-03-20T20:59:42.370Z,81.96
2023-03-20T21:02:11.952Z,82.33
2023-03-20T21:04:40.457Z,82.26
2023-03-20T21:07:10.976Z,82.40
2023-03-20T21:09:39.197Z,82.07
2023-03-20T21:12:08.329Z,80.16
2023-03-20T21:14:37.663Z,78.98
2023-03-20T21:17:06.407Z,78.91
2023-03-20T21:19:37.058Z,78.82
2023-03-20T21:22:06.739Z,79.23
2023-03-20T21:24:35.151Z,79.74
2023-03-20T21:27:04.445Z,80.33
2023-03-20T21:29:32.248Z,78.41
2023-03-20T21:32:01.599Z,79.21
2023-03-20T21:34:29.952Z,78.72
2023-03-20T21:36:59.519Z,79.13
2023-03-20T21:39:28.400Z,79.18
2023-03-20T21:41:56.104Z,78.75
2023-03-20T21:45:01.029Z,78.27
2023-03-20T21:50:46.529Z,78.71
2023-03-20T21:59:03.685Z,78.33
2023-03-20T22:07:32.903Z,77.47
2023-03-20T22:10:37.575Z,77.54
2023-03-20T22:18:50.843Z,76.98
2023-03-20T22:21:41.827Z,76.90
2023-03-20T22:24:29.949Z,76.67
2023-03-20T22:35:46.845Z,75.22
2023-03-20T22:38:29.360Z,74.94
2023-03-20T22:46:41.740Z,74.13
2023-03-20T22:48:57.932Z,74.22
2023-03-20T22:51:34.227Z,74.32
2023-03-20T22:54:05.019Z,74.51
2023-03-20T22:56:32.639Z,73.20
2023-03-20T22:59:01.296Z,72.48
2023-03-20T23:01:29.044Z,73.34
2023-03-20T23:03:56.726Z,73.16
2023-03-20T23:06:26.129Z,72.73
2023-03-20T23:08:58.373Z,71.66
2023-03-20T23:11:28.770Z,71.83
2023-03-20T23:13:57.198Z,72.18
2023-03-20T23:16:24.975Z,71.68
2023-03-20T23:18:52.651Z,72.16
2023-03-20T23:21:20.886Z,72.09
2023-03-20T23:23:48.511Z,72.68
2023-03-20T23:26:20.234Z,72.52
2023-03-20T23:28:51.406Z,71.76
2023-03-20T23:31:20.990Z,70.83
2023-03-20T23:33:50.973Z,71.17
2023-03-20T23:36:35.004Z,71.41
2023-03-20T23:39:03.693Z,71.52
2023-03-20T23:41:58.018Z,71.61
2023-03-20T23:44:20.362Z,71.75
2023-03-20T23:46:48.415Z,71.63
2023-03-20T23:49:16.341Z,71.25
2023-03-20T23:51:44.079Z,71.64
2023-03-20T23:54:12.554Z,71.40
2023-03-20T23:56:40.646Z,71.64
2023-03-20T23:59:20.630Z,70.79
